sensor_id;sensor_type;location;lat;lon;timestamp;temperature;humidity
10121;DHT22;5100;45.176;5.714;2023-02-18T00:01:28;13.10;63.10
10121;DHT22;5100;45.176;5.714;2023-02-18T00:03:57;13.10;63.20
10121;DHT22;5100;45.176;5.714;2023-02-18T00:06:26;13.10;63.20
10121;DHT22;5100;45.176;5.714;2023-02-18T00:08:53;13.00;63.20
10121;DHT22;5100;45.176;5.714;2023-02-18T00:11:20;13.00;63.10
10121;DHT22;5100;45.176;5.714;2023-02-18T00:13:55;13.00;63.20
10121;DHT22;5100;45.176;5.714;2023-02-18T00:16:22;13.00;63.30
10121;DHT22;5100;45.176;5.714;2023-02-18T00:18:49;13.00;63.50
10121;DHT22;5100;45.176;5.714;2023-02-18T00:21:15;13.00;63.50
10121;DHT22;5100;45.176;5.714;2023-02-18T00:23:42;13.00;63.70
10121;DHT22;5100;45.176;5.714;2023-02-18T00:26:11;13.00;63.70
10121;DHT22;5100;45.176;5.714;2023-02-18T00:28:38;13.00;63.80
10121;DHT22;5100;45.176;5.714;2023-02-18T00:31:16;13.00;63.90
10121;DHT22;5100;45.176;5.714;2023-02-18T00:33:42;13.00;63.80
10121;DHT22;5100;45.176;5.714;2023-02-18T00:36:14;13.00;63.90
10121;DHT22;5100;45.176;5.714;2023-02-18T00:38:45;13.00;63.80
10121;DHT22;5100;45.176;5.714;2023-02-18T00:41:12;12.90;63.90
10121;DHT22;5100;45.176;5.714;2023-02-18T00:43:38;12.90;63.90
10121;DHT22;5100;45.176;5.714;2023-02-18T00:46:04;12.90;63.90
10121;DHT22;5100;45.176;5.714;2023-02-18T00:48:31;12.90;64.00
10121;DHT22;5100;45.176;5.714;2023-02-18T00:50:57;12.90;64.00
10121;DHT22;5100;45.176;5.714;2023-02-18T00:53:26;12.90;64.00
10121;DHT22;5100;45.176;5.714;2023-02-18T00:55:53;12.90;64.10
10121;DHT22;5100;45.176;5.714;2023-02-18T00:58:19;12.90;64.10
10121;DHT22;5100;45.176;5.714;2023-02-18T01:00:45;12.90;64.10
10121;DHT22;5100;45.176;5.714;2023-02-18T01:03:12;12.90;64.20
10121;DHT22;5100;45.176;5.714;2023-02-18T01:05:39;12.90;64.00
10121;DHT22;5100;45.176;5.714;2023-02-18T01:08:07;12.90;64.00
10121;DHT22;5100;45.176;5.714;2023-02-18T01:10:35;12.90;64.00
10121;DHT22;5100;45.176;5.714;2023-02-18T01:13:03;12.90;63.90
10121;DHT22;5100;45.176;5.714;2023-02-18T01:15:30;12.90;63.80
10121;DHT22;5100;45.176;5.714;2023-02-18T01:17:57;12.90;63.90
10121;DHT22;5100;45.176;5.714;2023-02-18T01:20:23;12.90;63.90
10121;DHT22;5100;45.176;5.714;2023-02-18T01:22:49;12.90;63.70
10121;DHT22;5100;45.176;5.714;2023-02-18T01:25:15;12.90;63.40
10121;DHT22;5100;45.176;5.714;2023-02-18T01:27:41;12.90;62.90
10121;DHT22;5100;45.176;5.714;2023-02-18T01:30:11;12.90;62.70
10121;DHT22;5100;45.176;5.714;2023-02-18T01:32:38;12.90;62.50
10121;DHT22;5100;45.176;5.714;2023-02-18T01:35:06;12.90;62.40
10121;DHT22;5100;45.176;5.714;2023-02-18T01:37:32;12.90;62.30
10121;DHT22;5100;45.176;5.714;2023-02-18T01:39:59;12.90;62.20
10121;DHT22;5100;45.176;5.714;2023-02-18T01:42:27;12.90;62.10
10121;DHT22;5100;45.176;5.714;2023-02-18T01:47:53;12.90;62.10
10121;DHT22;5100;45.176;5.714;2023-02-18T01:50:19;12.90;62.10
10121;DHT22;5100;45.176;5.714;2023-02-18T01:52:47;12.90;62.10
10121;DHT22;5100;45.176;5.714;2023-02-18T01:55:13;12.90;62.20
10121;DHT22;5100;45.176;5.714;2023-02-18T01:57:42;13.00;62.30
10121;DHT22;5100;45.176;5.714;2023-02-18T02:00:16;12.90;62.40
10121;DHT22;5100;45.176;5.714;2023-02-18T02:02:47;12.90;62.60
10121;DHT22;5100;45.176;5.714;2023-02-18T02:05:14;13.00;62.60
10121;DHT22;5100;45.176;5.714;2023-02-18T02:07:41;13.00;62.70
10121;DHT22;5100;45.176;5.714;2023-02-18T02:10:09;13.00;62.70
10121;DHT22;5100;45.176;5.714;2023-02-18T02:12:59;13.00;62.50
10121;DHT22;5100;45.176;5.714;2023-02-18T02:15:48;13.00;62.40
10121;DHT22;5100;45.176;5.714;2023-02-18T02:18:31;13.00;62.30
10121;DHT22;5100;45.176;5.714;2023-02-18T02:21:24;13.00;62.10
10121;DHT22;5100;45.176;5.714;2023-02-18T02:37:11;13.00;62.10
10121;DHT22;5100;45.176;5.714;2023-02-18T02:45:18;13.00;62.10
10121;DHT22;5100;45.176;5.714;2023-02-18T02:51:10;13.00;62.10
10121;DHT22;5100;45.176;5.714;2023-02-18T02:53:39;13.00;62.20
10121;DHT22;5100;45.176;5.714;2023-02-18T02:56:16;13.00;62.20
10121;DHT22;5100;45.176;5.714;2023-02-18T02:58:44;13.00;62.20
10121;DHT22;5100;45.176;5.714;2023-02-18T03:01:35;13.00;62.10
10121;DHT22;5100;45.176;5.714;2023-02-18T03:07:27;13.00;62.10
10121;DHT22;5100;45.176;5.714;2023-02-18T03:15:54;13.00;62.50
10121;DHT22;5100;45.176;5.714;2023-02-18T03:23:38;13.00;62.20
10121;DHT22;5100;45.176;5.714;2023-02-18T03:26:08;13.00;62.10
10121;DHT22;5100;45.176;5.714;2023-02-18T03:28:36;13.00;62.10
10121;DHT22;5100;45.176;5.714;2023-02-18T03:31:17;13.00;62.00
10121;DHT22;5100;45.176;5.714;2023-02-18T03:34:06;13.00;62.00
10121;DHT22;5100;45.176;5.714;2023-02-18T03:36:35;13.00;62.00
10121;DHT22;5100;45.176;5.714;2023-02-18T03:39:11;13.00;62.00
10121;DHT22;5100;45.176;5.714;2023-02-18T03:41:40;13.00;62.00
10121;DHT22;5100;45.176;5.714;2023-02-18T03:44:08;13.00;62.00
10121;DHT22;5100;45.176;5.714;2023-02-18T03:46:36;13.00;62.10
10121;DHT22;5100;45.176;5.714;2023-02-18T03:49:04;13.00;62.10
10121;DHT22;5100;45.176;5.714;2023-02-18T03:51:30;13.00;62.20
10121;DHT22;5100;45.176;5.714;2023-02-18T03:53:56;13.00;62.20
10121;DHT22;5100;45.176;5.714;2023-02-18T03:56:22;13.00;62.20
10121;DHT22;5100;45.176;5.714;2023-02-18T03:58:49;13.00;62.30
10121;DHT22;5100;45.176;5.714;2023-02-18T04:01:15;13.00;62.20
10121;DHT22;5100;45.176;5.714;2023-02-18T04:03:42;13.00;62.20
10121;DHT22;5100;45.176;5.714;2023-02-18T04:06:08;13.00;62.10
10121;DHT22;5100;45.176;5.714;2023-02-18T04:08:34;13.00;62.10
10121;DHT22;5100;45.176;5.714;2023-02-18T04:11:02;13.00;62.00
10121;DHT22;5100;45.176;5.714;2023-02-18T04:13:30;13.00;62.00
10121;DHT22;5100;45.176;5.714;2023-02-18T04:15:56;13.00;62.00
10121;DHT22;5100;45.176;5.714;2023-02-18T04:18:23;13.00;62.00
10121;DHT22;5100;45.176;5.714;2023-02-18T04:20:49;12.90;62.00
10121;DHT22;5100;45.176;5.714;2023-02-18T04:23:15;12.90;61.90
10121;DHT22;5100;45.176;5.714;2023-02-18T04:25:41;12.90;61.90
10121;DHT22;5100;45.176;5.714;2023-02-18T04:28:08;12.90;62.00
10121;DHT22;5100;45.176;5.714;2023-02-18T04:30:36;12.90;62.00
10121;DHT22;5100;45.176;5.714;2023-02-18T04:33:02;12.90;62.10
10121;DHT22;5100;45.176;5.714;2023-02-18T04:35:28;12.90;62.00
10121;DHT22;5100;45.176;5.714;2023-02-18T04:37:54;12.90;62.10
10121;DHT22;5100;45.176;5.714;2023-02-18T04:40:20;12.90;62.00
10121;DHT22;5100;45.176;5.714;2023-02-18T04:42:46;12.90;62.10
10121;DHT22;5100;45.176;5.714;2023-02-18T04:45:12;12.90;62.20
10121;DHT22;5100;45.176;5.714;2023-02-18T04:47:39;12.90;62.20
10121;DHT22;5100;45.176;5.714;2023-02-18T04:50:05;12.80;62.20
10121;DHT22;5100;45.176;5.714;2023-02-18T04:52:32;12.80;62.20
10121;DHT22;5100;45.176;5.714;2023-02-18T04:54:58;12.80;62.20
10121;DHT22;5100;45.176;5.714;2023-02-18T04:57:24;12.80;62.20
10121;DHT22;5100;45.176;5.714;2023-02-18T04:59:53;12.80;62.20
10121;DHT22;5100;45.176;5.714;2023-02-18T05:02:19;12.80;62.20
10121;DHT22;5100;45.176;5.714;2023-02-18T05:04:45;12.80;62.30
10121;DHT22;5100;45.176;5.714;2023-02-18T05:07:11;12.80;62.30
10121;DHT22;5100;45.176;5.714;2023-02-18T05:09:37;12.80;62.30
10121;DHT22;5100;45.176;5.714;2023-02-18T05:12:04;12.80;62.40
10121;DHT22;5100;45.176;5.714;2023-02-18T05:14:30;12.80;62.30
10121;DHT22;5100;45.176;5.714;2023-02-18T05:16:57;12.80;62.30
10121;DHT22;5100;45.176;5.714;2023-02-18T05:19:22;12.80;62.20
10121;DHT22;5100;45.176;5.714;2023-02-18T05:21:48;12.70;62.20
10121;DHT22;5100;45.176;5.714;2023-02-18T05:24:15;12.70;62.20
10121;DHT22;5100;45.176;5.714;2023-02-18T05:26:41;12.70;62.20
10121;DHT22;5100;45.176;5.714;2023-02-18T05:29:07;12.70;62.20
10121;DHT22;5100;45.176;5.714;2023-02-18T05:31:33;12.70;62.20
10121;DHT22;5100;45.176;5.714;2023-02-18T05:33:59;12.70;62.20
10121;DHT22;5100;45.176;5.714;2023-02-18T05:36:25;12.70;62.20
10121;DHT22;5100;45.176;5.714;2023-02-18T05:38:51;12.70;62.20
10121;DHT22;5100;45.176;5.714;2023-02-18T05:41:18;12.70;62.20
10121;DHT22;5100;45.176;5.714;2023-02-18T05:43:44;12.70;62.20
10121;DHT22;5100;45.176;5.714;2023-02-18T05:46:29;12.70;62.20
10121;DHT22;5100;45.176;5.714;2023-02-18T05:48:55;12.70;62.20
10121;DHT22;5100;45.176;5.714;2023-02-18T05:51:21;12.60;62.20
10121;DHT22;5100;45.176;5.714;2023-02-18T05:53:47;12.60;62.20
10121;DHT22;5100;45.176;5.714;2023-02-18T05:56:13;12.60;62.30
10121;DHT22;5100;45.176;5.714;2023-02-18T05:58:39;12.60;62.30
10121;DHT22;5100;45.176;5.714;2023-02-18T06:01:06;12.60;62.30
10121;DHT22;5100;45.176;5.714;2023-02-18T06:03:32;12.60;62.30
10121;DHT22;5100;45.176;5.714;2023-02-18T06:05:58;12.60;62.30
10121;DHT22;5100;45.176;5.714;2023-02-18T06:08:24;12.60;62.20
10121;DHT22;5100;45.176;5.714;2023-02-18T06:10:50;12.60;62.30
10121;DHT22;5100;45.176;5.714;2023-02-18T06:13:17;12.50;62.30
10121;DHT22;5100;45.176;5.714;2023-02-18T06:15:43;12.50;62.40
10121;DHT22;5100;45.176;5.714;2023-02-18T06:18:09;12.50;62.40
10121;DHT22;5100;45.176;5.714;2023-02-18T06:20:35;12.50;62.50
10121;DHT22;5100;45.176;5.714;2023-02-18T06:23:01;12.50;62.50
10121;DHT22;5100;45.176;5.714;2023-02-18T06:25:28;12.50;62.50
10121;DHT22;5100;45.176;5.714;2023-02-18T06:27:54;12.50;62.50
10121;DHT22;5100;45.176;5.714;2023-02-18T06:30:20;12.50;62.40
10121;DHT22;5100;45.176;5.714;2023-02-18T06:32:46;12.50;62.40
10121;DHT22;5100;45.176;5.714;2023-02-18T06:35:12;12.50;62.40
10121;DHT22;5100;45.176;5.714;2023-02-18T06:37:38;12.40;62.40
10121;DHT22;5100;45.176;5.714;2023-02-18T06:40:06;12.40;62.40
10121;DHT22;5100;45.176;5.714;2023-02-18T06:42:32;12.40;62.40
10121;DHT22;5100;45.176;5.714;2023-02-18T06:44:58;12.40;62.40
10121;DHT22;5100;45.176;5.714;2023-02-18T06:47:24;12.40;62.40
10121;DHT22;5100;45.176;5.714;2023-02-18T06:49:50;12.40;62.30
10121;DHT22;5100;45.176;5.714;2023-02-18T06:52:16;12.40;62.30
10121;DHT22;5100;45.176;5.714;2023-02-18T06:54:43;12.40;62.30
10121;DHT22;5100;45.176;5.714;2023-02-18T06:57:09;12.40;62.30
10121;DHT22;5100;45.176;5.714;2023-02-18T06:59:35;12.40;62.30
10121;DHT22;5100;45.176;5.714;2023-02-18T07:02:01;12.40;62.30
10121;DHT22;5100;45.176;5.714;2023-02-18T07:04:27;12.40;62.30
10121;DHT22;5100;45.176;5.714;2023-02-18T07:06:53;12.40;62.30
10121;DHT22;5100;45.176;5.714;2023-02-18T07:09:19;12.40;62.30
10121;DHT22;5100;45.176;5.714;2023-02-18T07:11:45;12.50;62.20
10121;DHT22;5100;45.176;5.714;2023-02-18T07:14:11;12.50;62.10
10121;DHT22;5100;45.176;5.714;2023-02-18T07:16:37;12.50;62.10
10121;DHT22;5100;45.176;5.714;2023-02-18T07:19:03;12.50;62.00
10121;DHT22;5100;45.176;5.714;2023-02-18T07:21:29;12.50;62.00
10121;DHT22;5100;45.176;5.714;2023-02-18T07:23:56;12.50;61.90
10121;DHT22;5100;45.176;5.714;2023-02-18T07:26:22;12.50;61.70
10121;DHT22;5100;45.176;5.714;2023-02-18T07:28:48;12.50;61.70
10121;DHT22;5100;45.176;5.714;2023-02-18T07:31:14;12.60;61.50
10121;DHT22;5100;45.176;5.714;2023-02-18T07:33:40;12.60;61.40
10121;DHT22;5100;45.176;5.714;2023-02-18T07:36:07;12.60;61.30
10121;DHT22;5100;45.176;5.714;2023-02-18T07:38:33;12.60;61.20
10121;DHT22;5100;45.176;5.714;2023-02-18T07:40:59;12.60;61.10
10121;DHT22;5100;45.176;5.714;2023-02-18T07:43:25;12.60;61.10
10121;DHT22;5100;45.176;5.714;2023-02-18T07:45:52;12.70;61.10
10121;DHT22;5100;45.176;5.714;2023-02-18T07:48:17;12.70;61.00
10121;DHT22;5100;45.176;5.714;2023-02-18T07:50:45;12.70;61.00
10121;DHT22;5100;45.176;5.714;2023-02-18T07:53:13;12.70;60.90
10121;DHT22;5100;45.176;5.714;2023-02-18T07:55:39;12.70;60.80
10121;DHT22;5100;45.176;5.714;2023-02-18T07:58:23;12.80;60.80
10121;DHT22;5100;45.176;5.714;2023-02-18T08:00:51;12.80;60.70
10121;DHT22;5100;45.176;5.714;2023-02-18T08:03:20;12.90;60.60
10121;DHT22;5100;45.176;5.714;2023-02-18T08:05:48;13.10;60.40
10121;DHT22;5100;45.176;5.714;2023-02-18T08:08:20;13.20;60.30
10121;DHT22;5100;45.176;5.714;2023-02-18T08:10:47;13.20;60.30
10121;DHT22;5100;45.176;5.714;2023-02-18T08:13:14;13.20;60.60
10121;DHT22;5100;45.176;5.714;2023-02-18T08:15:40;13.30;61.30
10121;DHT22;5100;45.176;5.714;2023-02-18T08:18:13;13.30;60.90
10121;DHT22;5100;45.176;5.714;2023-02-18T08:20:39;13.40;60.80
10121;DHT22;5100;45.176;5.714;2023-02-18T08:23:06;13.40;60.60
10121;DHT22;5100;45.176;5.714;2023-02-18T08:25:32;13.50;59.90
10121;DHT22;5100;45.176;5.714;2023-02-18T08:27:59;13.50;59.60
10121;DHT22;5100;45.176;5.714;2023-02-18T08:30:26;13.50;59.50
10121;DHT22;5100;45.176;5.714;2023-02-18T08:32:52;13.50;59.40
10121;DHT22;5100;45.176;5.714;2023-02-18T08:35:18;13.60;59.40
10121;DHT22;5100;45.176;5.714;2023-02-18T08:37:44;13.60;59.40
10121;DHT22;5100;45.176;5.714;2023-02-18T08:40:11;13.60;59.50
10121;DHT22;5100;45.176;5.714;2023-02-18T08:42:38;13.60;59.50
10121;DHT22;5100;45.176;5.714;2023-02-18T08:45:05;13.60;59.60
10121;DHT22;5100;45.176;5.714;2023-02-18T08:47:31;13.60;59.60
10121;DHT22;5100;45.176;5.714;2023-02-18T08:49:58;13.70;59.70
10121;DHT22;5100;45.176;5.714;2023-02-18T08:52:25;13.70;59.80
10121;DHT22;5100;45.176;5.714;2023-02-18T08:54:51;13.80;59.70
10121;DHT22;5100;45.176;5.714;2023-02-18T08:57:17;13.80;59.70
10121;DHT22;5100;45.176;5.714;2023-02-18T08:59:43;13.90;59.80
10121;DHT22;5100;45.176;5.714;2023-02-18T09:02:13;13.90;59.80
10121;DHT22;5100;45.176;5.714;2023-02-18T09:04:39;14.00;59.80
10121;DHT22;5100;45.176;5.714;2023-02-18T09:07:06;14.00;59.60
10121;DHT22;5100;45.176;5.714;2023-02-18T09:09:32;14.10;59.40
10121;DHT22;5100;45.176;5.714;2023-02-18T09:11:58;14.10;59.20
10121;DHT22;5100;45.176;5.714;2023-02-18T09:14:24;14.10;59.20
10121;DHT22;5100;45.176;5.714;2023-02-18T09:16:51;14.20;59.20
10121;DHT22;5100;45.176;5.714;2023-02-18T09:19:17;14.20;58.90
10121;DHT22;5100;45.176;5.714;2023-02-18T09:21:44;14.30;58.80
10121;DHT22;5100;45.176;5.714;2023-02-18T09:24:10;14.30;58.80
10121;DHT22;5100;45.176;5.714;2023-02-18T09:26:36;14.30;58.70
10121;DHT22;5100;45.176;5.714;2023-02-18T09:29:03;14.30;58.70
10121;DHT22;5100;45.176;5.714;2023-02-18T09:31:29;14.30;58.60
10121;DHT22;5100;45.176;5.714;2023-02-18T09:33:57;14.30;58.60
10121;DHT22;5100;45.176;5.714;2023-02-18T09:36:25;14.30;58.60
10121;DHT22;5100;45.176;5.714;2023-02-18T09:38:51;14.40;58.60
10121;DHT22;5100;45.176;5.714;2023-02-18T09:43:54;14.40;58.70
10121;DHT22;5100;45.176;5.714;2023-02-18T09:48:51;14.50;58.40
10121;DHT22;5100;45.176;5.714;2023-02-18T09:51:18;14.50;58.20
10121;DHT22;5100;45.176;5.714;2023-02-18T09:53:45;14.50;58.10
10121;DHT22;5100;45.176;5.714;2023-02-18T09:56:21;14.50;58.20
10121;DHT22;5100;45.176;5.714;2023-02-18T09:58:49;14.50;58.10
10121;DHT22;5100;45.176;5.714;2023-02-18T10:01:32;14.60;58.10
10121;DHT22;5100;45.176;5.714;2023-02-18T10:04:16;14.60;58.00
10121;DHT22;5100;45.176;5.714;2023-02-18T10:06:45;14.60;57.90
10121;DHT22;5100;45.176;5.714;2023-02-18T10:09:24;14.70;57.80
10121;DHT22;5100;45.176;5.714;2023-02-18T10:11:55;14.70;57.90
10121;DHT22;5100;45.176;5.714;2023-02-18T10:14:23;14.70;57.90
10121;DHT22;5100;45.176;5.714;2023-02-18T10:16:51;14.80;57.90
10121;DHT22;5100;45.176;5.714;2023-02-18T10:19:34;14.80;58.00
10121;DHT22;5100;45.176;5.714;2023-02-18T10:22:04;14.80;58.10
10121;DHT22;5100;45.176;5.714;2023-02-18T10:24:33;14.80;58.20
10121;DHT22;5100;45.176;5.714;2023-02-18T10:27:04;14.80;58.30
10121;DHT22;5100;45.176;5.714;2023-02-18T10:29:31;14.80;58.50
10121;DHT22;5100;45.176;5.714;2023-02-18T10:32:23;14.80;58.70
10121;DHT22;5100;45.176;5.714;2023-02-18T10:35:05;14.90;58.80
10121;DHT22;5100;45.176;5.714;2023-02-18T10:40:46;14.90;59.20
10121;DHT22;5100;45.176;5.714;2023-02-18T10:43:20;14.90;59.20
10121;DHT22;5100;45.176;5.714;2023-02-18T10:46:00;14.90;59.10
10121;DHT22;5100;45.176;5.714;2023-02-18T10:51:40;14.90;59.50
10121;DHT22;5100;45.176;5.714;2023-02-18T10:54:09;14.90;59.80
10121;DHT22;5100;45.176;5.714;2023-02-18T10:56:46;15.00;59.90
10121;DHT22;5100;45.176;5.714;2023-02-18T10:59:24;15.00;60.40
10121;DHT22;5100;45.176;5.714;2023-02-18T11:01:55;15.10;60.80
10121;DHT22;5100;45.176;5.714;2023-02-18T11:04:26;15.10;61.10
10121;DHT22;5100;45.176;5.714;2023-02-18T11:06:53;15.10;61.00
10121;DHT22;5100;45.176;5.714;2023-02-18T11:14:45;15.10;61.60
10121;DHT22;5100;45.176;5.714;2023-02-18T11:17:20;15.10;61.70
10121;DHT22;5100;45.176;5.714;2023-02-18T11:19:55;15.10;61.70
10121;DHT22;5100;45.176;5.714;2023-02-18T11:22:32;15.10;61.80
10121;DHT22;5100;45.176;5.714;2023-02-18T11:25:02;15.10;61.70
10121;DHT22;5100;45.176;5.714;2023-02-18T11:27:40;15.10;61.70
10121;DHT22;5100;45.176;5.714;2023-02-18T11:30:24;15.20;61.30
10121;DHT22;5100;45.176;5.714;2023-02-18T11:34:01;15.20;61.20
10121;DHT22;5100;45.176;5.714;2023-02-18T11:35:57;15.20;61.10
10121;DHT22;5100;45.176;5.714;2023-02-18T11:38:42;15.10;61.00
10121;DHT22;5100;45.176;5.714;2023-02-18T11:41:12;15.10;61.10
10121;DHT22;5100;45.176;5.714;2023-02-18T11:43:45;15.10;61.10
10121;DHT22;5100;45.176;5.714;2023-02-18T11:46:21;15.10;61.30
10121;DHT22;5100;45.176;5.714;2023-02-18T11:48:49;15.20;61.30
10121;DHT22;5100;45.176;5.714;2023-02-18T11:51:32;15.10;61.30
10121;DHT22;5100;45.176;5.714;2023-02-18T11:57:14;15.20;61.20
10121;DHT22;5100;45.176;5.714;2023-02-18T11:59:40;15.20;61.30
10121;DHT22;5100;45.176;5.714;2023-02-18T12:04:42;15.20;61.30
10121;DHT22;5100;45.176;5.714;2023-02-18T12:10:00;15.20;61.20
10121;DHT22;5100;45.176;5.714;2023-02-18T12:12:35;15.20;61.50
10121;DHT22;5100;45.176;5.714;2023-02-18T12:15:08;15.20;61.80
10121;DHT22;5100;45.176;5.714;2023-02-18T12:18:00;15.20;61.70
10121;DHT22;5100;45.176;5.714;2023-02-18T12:23:40;15.30;61.70
10121;DHT22;5100;45.176;5.714;2023-02-18T12:26:34;15.30;62.10
10121;DHT22;5100;45.176;5.714;2023-02-18T12:37:59;15.40;63.10
10121;DHT22;5100;45.176;5.714;2023-02-18T12:51:31;15.50;64.80
10121;DHT22;5100;45.176;5.714;2023-02-18T12:57:14;15.60;65.10
10121;DHT22;5100;45.176;5.714;2023-02-18T13:02:43;15.60;65.10
10121;DHT22;5100;45.176;5.714;2023-02-18T13:05:30;15.70;65.30
10121;DHT22;5100;45.176;5.714;2023-02-18T13:11:05;15.70;65.40
10121;DHT22;5100;45.176;5.714;2023-02-18T13:13:38;15.80;65.40
10121;DHT22;5100;45.176;5.714;2023-02-18T13:16:12;15.80;65.30
10121;DHT22;5100;45.176;5.714;2023-02-18T13:19:13;15.80;65.10
10121;DHT22;5100;45.176;5.714;2023-02-18T13:21:42;15.90;64.90
10121;DHT22;5100;45.176;5.714;2023-02-18T13:24:13;15.90;64.90
10121;DHT22;5100;45.176;5.714;2023-02-18T13:26:40;15.90;64.90
10121;DHT22;5100;45.176;5.714;2023-02-18T13:31:43;16.00;64.70
10121;DHT22;5100;45.176;5.714;2023-02-18T13:37:25;16.00;64.70
10121;DHT22;5100;45.176;5.714;2023-02-18T13:39:55;16.00;64.70
10121;DHT22;5100;45.176;5.714;2023-02-18T13:42:26;16.00;64.60
10121;DHT22;5100;45.176;5.714;2023-02-18T13:47:41;16.10;64.40
10121;DHT22;5100;45.176;5.714;2023-02-18T13:50:28;16.10;64.40
10121;DHT22;5100;45.176;5.714;2023-02-18T13:52:58;16.10;64.40
10121;DHT22;5100;45.176;5.714;2023-02-18T13:55:39;16.10;64.30
10121;DHT22;5100;45.176;5.714;2023-02-18T13:58:36;16.10;64.30
10121;DHT22;5100;45.176;5.714;2023-02-18T14:06:20;16.20;64.10
10121;DHT22;5100;45.176;5.714;2023-02-18T14:08:47;16.20;64.00
10121;DHT22;5100;45.176;5.714;2023-02-18T14:13:48;16.20;64.10
10121;DHT22;5100;45.176;5.714;2023-02-18T14:16:15;16.20;64.10
10121;DHT22;5100;45.176;5.714;2023-02-18T14:23:59;16.30;64.10
10121;DHT22;5100;45.176;5.714;2023-02-18T14:26:38;16.30;64.00
10121;DHT22;5100;45.176;5.714;2023-02-18T14:29:10;16.30;64.00
10121;DHT22;5100;45.176;5.714;2023-02-18T14:32:03;16.30;63.90
10121;DHT22;5100;45.176;5.714;2023-02-18T14:45:52;16.30;64.10
10121;DHT22;5100;45.176;5.714;2023-02-18T14:48:44;16.30;64.00
10121;DHT22;5100;45.176;5.714;2023-02-18T14:51:19;16.30;64.10
10121;DHT22;5100;45.176;5.714;2023-02-18T14:53:46;16.30;64.10
10121;DHT22;5100;45.176;5.714;2023-02-18T14:56:15;16.30;64.10
10121;DHT22;5100;45.176;5.714;2023-02-18T14:59:05;16.30;64.10
10121;DHT22;5100;45.176;5.714;2023-02-18T15:01:34;16.40;64.10
10121;DHT22;5100;45.176;5.714;2023-02-18T15:04:02;16.40;64.10
10121;DHT22;5100;45.176;5.714;2023-02-18T15:06:35;16.40;64.10
10121;DHT22;5100;45.176;5.714;2023-02-18T15:09:19;16.40;64.00
10121;DHT22;5100;45.176;5.714;2023-02-18T15:11:51;16.40;64.10
10121;DHT22;5100;45.176;5.714;2023-02-18T15:14:23;16.40;64.10
10121;DHT22;5100;45.176;5.714;2023-02-18T15:16:51;16.40;64.00
10121;DHT22;5100;45.176;5.714;2023-02-18T15:19:26;16.40;64.00
10121;DHT22;5100;45.176;5.714;2023-02-18T15:21:55;16.40;64.10
10121;DHT22;5100;45.176;5.714;2023-02-18T15:24:36;16.40;64.00
10121;DHT22;5100;45.176;5.714;2023-02-18T15:27:21;16.50;64.00
10121;DHT22;5100;45.176;5.714;2023-02-18T15:29:49;16.60;63.70
10121;DHT22;5100;45.176;5.714;2023-02-18T15:32:23;16.60;63.50
10121;DHT22;5100;45.176;5.714;2023-02-18T15:34:52;16.60;63.50
10121;DHT22;5100;45.176;5.714;2023-02-18T15:37:19;16.60;63.50
10121;DHT22;5100;45.176;5.714;2023-02-18T15:39:45;16.60;63.40
10121;DHT22;5100;45.176;5.714;2023-02-18T15:42:28;16.60;63.50
10121;DHT22;5100;45.176;5.714;2023-02-18T15:45:00;16.60;63.50
10121;DHT22;5100;45.176;5.714;2023-02-18T15:47:27;16.60;63.60
10121;DHT22;5100;45.176;5.714;2023-02-18T15:49:57;16.60;63.60
10121;DHT22;5100;45.176;5.714;2023-02-18T15:52:30;16.60;63.70
10121;DHT22;5100;45.176;5.714;2023-02-18T15:55:10;16.60;63.70
10121;DHT22;5100;45.176;5.714;2023-02-18T15:57:39;16.60;63.70
10121;DHT22;5100;45.176;5.714;2023-02-18T16:00:19;16.60;63.70
10121;DHT22;5100;45.176;5.714;2023-02-18T16:02:55;16.60;63.80
10121;DHT22;5100;45.176;5.714;2023-02-18T16:05:27;16.60;63.80
10121;DHT22;5100;45.176;5.714;2023-02-18T16:08:00;16.60;63.80
10121;DHT22;5100;45.176;5.714;2023-02-18T16:13:01;16.50;63.80
10121;DHT22;5100;45.176;5.714;2023-02-18T16:15:31;16.50;63.80
10121;DHT22;5100;45.176;5.714;2023-02-18T16:18:02;16.50;63.90
10121;DHT22;5100;45.176;5.714;2023-02-18T16:20:31;16.50;63.90
10121;DHT22;5100;45.176;5.714;2023-02-18T16:23:11;16.50;64.00
10121;DHT22;5100;45.176;5.714;2023-02-18T16:28:15;16.50;64.10
10121;DHT22;5100;45.176;5.714;2023-02-18T16:30:42;16.50;64.10
10121;DHT22;5100;45.176;5.714;2023-02-18T16:33:10;16.50;64.20
10121;DHT22;5100;45.176;5.714;2023-02-18T16:35:36;16.40;64.20
10121;DHT22;5100;45.176;5.714;2023-02-18T16:38:03;16.40;64.20
10121;DHT22;5100;45.176;5.714;2023-02-18T16:40:37;16.40;64.30
10121;DHT22;5100;45.176;5.714;2023-02-18T16:43:20;16.40;64.40
10121;DHT22;5100;45.176;5.714;2023-02-18T16:45:53;16.40;64.40
10121;DHT22;5100;45.176;5.714;2023-02-18T16:48:31;16.40;64.50
10121;DHT22;5100;45.176;5.714;2023-02-18T16:51:08;16.40;64.50
10121;DHT22;5100;45.176;5.714;2023-02-18T16:53:34;16.40;64.60
10121;DHT22;5100;45.176;5.714;2023-02-18T16:56:00;16.30;64.60
10121;DHT22;5100;45.176;5.714;2023-02-18T16:58:27;16.30;64.60
10121;DHT22;5100;45.176;5.714;2023-02-18T17:00:54;16.30;64.60
10121;DHT22;5100;45.176;5.714;2023-02-18T17:03:21;16.30;64.60
10121;DHT22;5100;45.176;5.714;2023-02-18T17:05:47;16.30;64.60
10121;DHT22;5100;45.176;5.714;2023-02-18T17:10:45;16.30;64.60
10121;DHT22;5100;45.176;5.714;2023-02-18T17:13:14;16.30;64.60
10121;DHT22;5100;45.176;5.714;2023-02-18T17:15:42;16.30;64.60
10121;DHT22;5100;45.176;5.714;2023-02-18T17:18:08;16.30;64.60
10121;DHT22;5100;45.176;5.714;2023-02-18T17:20:34;16.30;64.60
10121;DHT22;5100;45.176;5.714;2023-02-18T17:23:00;16.30;64.60
10121;DHT22;5100;45.176;5.714;2023-02-18T17:25:38;16.30;64.60
10121;DHT22;5100;45.176;5.714;2023-02-18T17:28:05;16.30;64.60
10121;DHT22;5100;45.176;5.714;2023-02-18T17:30:35;16.30;64.60
10121;DHT22;5100;45.176;5.714;2023-02-18T17:33:02;16.20;64.60
10121;DHT22;5100;45.176;5.714;2023-02-18T17:35:29;16.20;64.60
10121;DHT22;5100;45.176;5.714;2023-02-18T17:37:55;16.20;64.70
10121;DHT22;5100;45.176;5.714;2023-02-18T17:40:23;16.20;64.60
10121;DHT22;5100;45.176;5.714;2023-02-18T17:42:49;16.20;64.70
10121;DHT22;5100;45.176;5.714;2023-02-18T17:45:28;16.20;64.70
10121;DHT22;5100;45.176;5.714;2023-02-18T17:47:55;16.20;64.70
10121;DHT22;5100;45.176;5.714;2023-02-18T17:50:22;16.20;64.80
10121;DHT22;5100;45.176;5.714;2023-02-18T17:52:48;16.10;64.80
10121;DHT22;5100;45.176;5.714;2023-02-18T17:55:18;16.10;64.80
10121;DHT22;5100;45.176;5.714;2023-02-18T17:57:44;16.10;64.80
10121;DHT22;5100;45.176;5.714;2023-02-18T18:00:35;16.10;64.80
10121;DHT22;5100;45.176;5.714;2023-02-18T18:03:02;16.10;64.80
10121;DHT22;5100;45.176;5.714;2023-02-18T18:05:36;16.10;64.80
10121;DHT22;5100;45.176;5.714;2023-02-18T18:08:04;16.10;64.80
10121;DHT22;5100;45.176;5.714;2023-02-18T18:10:34;16.10;64.90
10121;DHT22;5100;45.176;5.714;2023-02-18T18:13:14;16.10;64.80
10121;DHT22;5100;45.176;5.714;2023-02-18T18:15:42;16.10;64.90
10121;DHT22;5100;45.176;5.714;2023-02-18T18:18:10;16.00;64.90
10121;DHT22;5100;45.176;5.714;2023-02-18T18:20:37;16.00;64.90